createdAt,value
2018-11-02T00:01:18.907Z,99.30
2018-11-02T00:03:48.301Z,99.20
2018-11-02T00:06:16.774Z,99.10
2018-11-02T00:08:45.273Z,99.20
2018-11-02T00:11:13.758Z,99.20
2018-11-02T00:13:42.233Z,98.90
2018-11-02T00:16:10.691Z,99.30
2018-11-02T00:18:39.143Z,99.10
2018-11-02T00:21:07.617Z,99.00
2018-11-02T00:23:36.053Z,99.00
2018-11-02T00:26:04.689Z,99.10
2018-11-02T00:28:33.216Z,99.30
2018-11-02T00:31:01.677Z,99.40
2018-11-02T00:33:30.115Z,99.50
2018-11-02T00:35:58.571Z,99.50
2018-11-02T00:38:27.009Z,99.60
2018-11-02T00:40:55.436Z,99.60
2018-11-02T00:43:23.898Z,99.80
2018-11-02T00:45:52.386Z,99.90
2018-11-02T00:48:20.831Z,99.90
2018-11-02T00:50:49.349Z,99.90
2018-11-02T00:53:17.903Z,99.80
2018-11-02T00:55:46.447Z,99.70
2018-11-02T00:58:15.033Z,99.50
2018-11-02T01:00:43.596Z,99.30
2018-11-02T01:03:12.109Z,99.30
2018-11-02T01:05:40.537Z,99.50
2018-11-02T01:08:08.966Z,99.70
2018-11-02T01:10:37.423Z,99.40
2018-11-02T01:13:06.993Z,99.20
2018-11-02T01:15:35.599Z,99.10
2018-11-02T01:18:05.618Z,99.00
2018-11-02T01:20:34.222Z,98.80
2018-11-02T01:23:02.696Z,98.50
2018-11-02T01:25:31.139Z,98.50
2018-11-02T01:27:59.557Z,98.60
2018-11-02T01:30:28.014Z,98.70
2018-11-02T01:32:56.463Z,98.70
2018-11-02T01:35:24.918Z,98.60
2018-11-02T01:37:53.454Z,98.60
2018-11-02T01:40:21.881Z,98.30
2018-11-02T01:42:50.323Z,98.20
2018-11-02T01:45:19.444Z,98.00
2018-11-02T01:47:47.914Z,98.10
2018-11-02T01:50:16.358Z,98.10
2018-11-02T01:52:44.908Z,98.30
2018-11-02T01:55:13.445Z,98.40
2018-11-02T01:57:52.325Z,98.50
2018-11-02T02:00:20.838Z,98.50
2018-11-02T02:02:49.278Z,98.50
2018-11-02T02:05:17.875Z,98.50
2018-11-02T02:07:46.674Z,98.50
2018-11-02T02:10:15.144Z,98.40
2018-11-02T02:12:43.719Z,98.20
2018-11-02T02:15:12.780Z,98.20
2018-11-02T02:17:41.586Z,98.20
2018-11-02T02:20:10.210Z,98.00
2018-11-02T02:22:38.750Z,98.00
2018-11-02T02:25:07.452Z,97.90
2018-11-02T02:27:36.858Z,97.90
2018-11-02T02:30:10.876Z,98.00
2018-11-02T02:32:39.287Z,98.20
2018-11-02T02:35:08.767Z,98.20
2018-11-02T02:37:38.134Z,98.00
2018-11-02T02:40:08.324Z,98.10
2018-11-02T02:42:37.446Z,98.60
2018-11-02T02:45:07.305Z,98.60
2018-11-02T02:47:36.025Z,99.00
2018-11-02T02:50:06.914Z,99.40
2018-11-02T02:52:35.380Z,99.40
2018-11-02T02:55:06.792Z,99.10
2018-11-02T02:57:35.844Z,98.90
2018-11-02T03:00:06.578Z,98.50
2018-11-02T03:02:35.068Z,98.40
2018-11-02T03:05:03.637Z,98.20
2018-11-02T03:07:32.202Z,98.30
2018-11-02T03:10:00.799Z,98.30
2018-11-02T03:12:31.469Z,98.00
2018-11-02T03:15:00.415Z,97.80
2018-11-02T03:17:28.994Z,98.10
2018-11-02T03:19:58.241Z,98.00
2018-11-02T03:22:26.889Z,98.00
2018-11-02T03:24:56.008Z,98.00
2018-11-02T03:27:26.388Z,98.00
2018-11-02T03:29:54.788Z,97.90
2018-11-02T03:32:23.781Z,97.80
2018-11-02T03:34:52.574Z,97.80
2018-11-02T03:37:21.840Z,97.80
2018-11-02T03:39:50.502Z,97.90
2018-11-02T03:42:19.852Z,98.10
2018-11-02T03:44:48.438Z,98.00
2018-11-02T03:47:17.632Z,98.10
2018-11-02T03:49:46.659Z,97.90
2018-11-02T03:52:15.692Z,98.00
2018-11-02T03:54:45.421Z,97.80
2018-11-02T03:57:14.206Z,97.60
2018-11-02T03:59:44.846Z,97.80
2018-11-02T04:02:17.934Z,98.00
2018-11-02T04:04:46.442Z,98.00
2018-11-02T04:07:14.862Z,98.00
2018-11-02T04:09:43.419Z,97.90
2018-11-02T04:12:11.861Z,97.70
2018-11-02T04:14:40.439Z,97.60
2018-11-02T04:17:08.887Z,97.60
2018-11-02T04:19:38.263Z,97.70
2018-11-02T04:22:06.735Z,98.00
2018-11-02T04:24:35.207Z,98.10
2018-11-02T04:27:03.658Z,98.50
2018-11-02T04:29:32.069Z,98.50
2018-11-02T04:32:00.527Z,98.90
2018-11-02T04:34:28.966Z,98.40
2018-11-02T04:36:57.382Z,98.50
2018-11-02T04:39:25.823Z,98.60
2018-11-02T04:41:54.299Z,98.50
2018-11-02T04:44:22.753Z,98.40
2018-11-02T04:46:51.337Z,98.30
2018-11-02T04:49:19.927Z,98.10
2018-11-02T04:51:48.511Z,98.20
2018-11-02T04:54:16.923Z,97.90
2018-11-02T04:56:45.340Z,97.70
2018-11-02T04:59:13.949Z,97.90
2018-11-02T05:01:42.439Z,97.90
2018-11-02T05:04:11.041Z,97.80
2018-11-02T05:06:39.626Z,97.60
2018-11-02T05:09:08.930Z,97.60
2018-11-02T05:11:37.344Z,97.60
2018-11-02T05:14:06.274Z,97.60
2018-11-02T05:16:34.755Z,97.80
2018-11-02T05:19:03.203Z,97.90
2018-11-02T05:21:31.639Z,97.90
2018-11-02T05:24:00.123Z,97.90
2018-11-02T05:26:28.560Z,98.00
2018-11-02T05:28:57.070Z,98.30
2018-11-02T05:31:25.523Z,97.80
2018-11-02T05:33:54.127Z,97.80
2018-11-02T05:36:22.618Z,97.80
2018-11-02T05:38:51.054Z,97.70
2018-11-02T05:41:19.575Z,97.70
2018-11-02T05:43:48.660Z,97.60
2018-11-02T05:46:17.243Z,97.30
2018-11-02T05:48:45.733Z,97.40
2018-11-02T05:51:14.328Z,97.50
2018-11-02T05:53:42.786Z,97.50
2018-11-02T05:56:11.235Z,97.70
2018-11-02T05:58:39.810Z,97.70
2018-11-02T06:01:08.264Z,98.00
2018-11-02T06:03:36.698Z,98.20
2018-11-02T06:06:05.441Z,98.20
2018-11-02T06:08:33.938Z,98.00
2018-11-02T06:11:02.348Z,97.70
2018-11-02T06:13:30.897Z,97.60
2018-11-02T06:15:59.313Z,97.70
2018-11-02T06:18:27.768Z,97.90
2018-11-02T06:20:56.197Z,98.00
2018-11-02T06:23:24.756Z,97.70
2018-11-02T06:25:53.260Z,98.00
2018-11-02T06:28:21.857Z,98.40
2018-11-02T06:30:50.360Z,98.50
2018-11-02T06:33:18.798Z,98.40
2018-11-02T06:35:47.356Z,98.30
2018-11-02T06:38:15.777Z,99.90
2018-11-02T06:40:44.221Z,99.90
2018-11-02T06:43:12.765Z,97.70
2018-11-02T06:45:41.452Z,97.50
2018-11-02T06:48:09.967Z,97.20
2018-11-02T06:50:38.579Z,97.30
2018-11-02T06:53:07.079Z,97.30
2018-11-02T06:55:36.152Z,97.10
2018-11-02T06:58:04.658Z,96.80
2018-11-02T07:00:33.179Z,96.60
2018-11-02T07:03:01.613Z,96.50
2018-11-02T07:05:30.163Z,96.50
2018-11-02T07:07:58.656Z,96.20
2018-11-02T07:10:27.067Z,96.60
2018-11-02T07:12:55.598Z,96.80
2018-11-02T07:15:24.162Z,97.20
2018-11-02T07:17:52.736Z,97.30
2018-11-02T07:20:21.178Z,97.10
2018-11-02T07:22:49.582Z,97.20
2018-11-02T07:25:18.094Z,97.00
2018-11-02T07:27:46.558Z,96.80
2018-11-02T07:30:14.976Z,96.60
2018-11-02T07:32:43.396Z,96.40
2018-11-02T07:35:11.874Z,95.90
2018-11-02T07:37:40.392Z,95.90
2018-11-02T07:40:10.296Z,96.20
2018-11-02T07:42:38.993Z,95.80
2018-11-02T07:45:08.188Z,95.10
2018-11-02T07:47:36.870Z,95.30
2018-11-02T07:50:06.585Z,94.90
2018-11-02T07:52:35.041Z,94.90
2018-11-02T07:55:03.506Z,95.50
2018-11-02T07:57:31.969Z,95.90
2018-11-02T08:00:00.449Z,96.00
2018-11-02T08:02:28.911Z,96.00
2018-11-02T08:04:57.349Z,96.10
2018-11-02T08:07:25.805Z,96.20
2018-11-02T08:09:54.281Z,95.90
2018-11-02T08:12:22.721Z,95.90
2018-11-02T08:14:51.185Z,95.80
2018-11-02T08:17:19.601Z,96.10
2018-11-02T08:19:48.041Z,95.60
2018-11-02T08:22:16.527Z,95.80
2018-11-02T08:24:44.959Z,95.90
2018-11-02T08:27:13.377Z,95.80
2018-11-02T08:29:41.818Z,95.40
2018-11-02T08:32:10.337Z,95.30
2018-11-02T08:34:38.739Z,95.30
2018-11-02T08:37:07.261Z,95.40
2018-11-02T08:39:35.681Z,95.20
2018-11-02T08:42:04.137Z,95.10
2018-11-02T08:44:32.622Z,95.30
2018-11-02T08:47:01.083Z,95.00
2018-11-02T08:49:31.285Z,94.80
2018-11-02T08:51:59.719Z,94.50
2018-11-02T08:54:28.158Z,94.40
2018-11-02T08:56:56.558Z,94.40
2018-11-02T08:59:25.231Z,94.30
2018-11-02T09:01:53.451Z,94.40
2018-11-02T09:04:21.949Z,94.10
2018-11-02T09:06:50.612Z,94.00
2018-11-02T09:09:19.086Z,94.10
2018-11-02T09:11:47.582Z,94.00
2018-11-02T09:14:16.024Z,94.00
2018-11-02T09:16:44.510Z,93.90
2018-11-02T09:19:12.960Z,93.80
2018-11-02T09:21:41.434Z,93.10
2018-11-02T09:24:09.870Z,93.30
2018-11-02T09:26:38.338Z,93.30
2018-11-02T09:29:06.801Z,93.10
2018-11-02T09:31:35.310Z,92.80
2018-11-02T09:34:03.763Z,92.40
2018-11-02T09:36:32.250Z,92.60
2018-11-02T09:39:00.696Z,92.40
2018-11-02T09:41:29.184Z,92.80
2018-11-02T09:43:57.638Z,92.90
2018-11-02T09:46:26.114Z,93.10
2018-11-02T09:48:55.282Z,93.00
2018-11-02T09:51:23.892Z,93.10
2018-11-02T09:53:52.294Z,93.10
2018-11-02T09:56:20.790Z,93.20
2018-11-02T09:58:49.289Z,93.40
2018-11-02T10:01:17.796Z,93.30
2018-11-02T10:03:46.250Z,93.20
2018-11-02T10:06:14.834Z,93.30
2018-11-02T10:08:43.301Z,93.20
2018-11-02T10:11:11.893Z,93.20
2018-11-02T10:13:40.386Z,93.20
2018-11-02T10:16:09.372Z,93.10
2018-11-02T10:18:37.877Z,93.20
2018-11-02T10:21:06.363Z,93.50
2018-11-02T10:23:34.929Z,93.40
2018-11-02T10:26:03.391Z,93.40
2018-11-02T10:28:32.025Z,93.30
2018-11-02T10:31:00.560Z,93.10
2018-11-02T10:33:29.106Z,93.20
2018-11-02T10:35:58.188Z,93.00
2018-11-02T10:38:26.685Z,93.00
2018-11-02T10:40:56.954Z,93.20
2018-11-02T10:43:26.446Z,93.30
2018-11-02T10:45:58.269Z,93.30
2018-11-02T10:48:27.925Z,93.30
2018-11-02T10:51:00.375Z,93.30
2018-11-02T10:53:28.900Z,92.40
2018-11-02T10:56:04.629Z,92.70
2018-11-02T10:58:33.109Z,92.80
2018-11-02T11:01:07.244Z,92.70
2018-11-02T11:03:35.674Z,92.50
2018-11-02T11:06:04.183Z,92.40
2018-11-02T11:08:32.653Z,92.60
2018-11-02T11:11:01.115Z,92.80
2018-11-02T11:13:29.971Z,92.90
2018-11-02T11:15:58.361Z,92.90
2018-11-02T11:18:26.845Z,92.80
2018-11-02T11:20:55.985Z,92.80
2018-11-02T11:23:24.438Z,92.30
2018-11-02T11:25:53.313Z,92.40
2018-11-02T11:28:21.942Z,92.10
2018-11-02T11:30:50.547Z,92.30
2018-11-02T11:33:19.062Z,91.90
2018-11-02T11:35:47.644Z,92.00
2018-11-02T11:38:16.050Z,92.00
2018-11-02T11:40:44.600Z,92.40
2018-11-02T11:43:13.156Z,92.40
2018-11-02T11:45:41.681Z,92.20
2018-11-02T11:48:10.221Z,92.30
2018-11-02T11:50:38.765Z,92.30
2018-11-02T11:53:07.269Z,91.90
2018-11-02T11:55:35.784Z,91.80
2018-11-02T11:58:04.297Z,91.40
2018-11-02T12:00:32.829Z,91.70
2018-11-02T12:03:01.339Z,91.90
2018-11-02T12:05:29.801Z,91.40
2018-11-02T12:07:58.338Z,91.60
2018-11-02T12:10:26.883Z,91.70
2018-11-02T12:12:55.399Z,91.70
2018-11-02T12:15:24.345Z,91.70
2018-11-02T12:17:52.858Z,91.60
2018-11-02T12:20:23.808Z,91.60
2018-11-02T12:22:55.119Z,91.60
2018-11-02T12:25:24.834Z,91.40
2018-11-02T12:27:53.355Z,91.00
2018-11-02T12:30:21.889Z,91.20
2018-11-02T12:32:50.405Z,91.30
2018-11-02T12:35:19.461Z,91.50
2018-11-02T12:37:48.141Z,92.20
2018-11-02T12:40:17.996Z,91.60
2018-11-02T12:42:47.995Z,91.70
2018-11-02T12:45:18.221Z,91.80
2018-11-02T12:47:47.397Z,97.10
2018-11-02T12:50:18.754Z,93.50
2018-11-02T12:52:48.166Z,91.40
2018-11-02T12:55:17.549Z,91.50
2018-11-02T12:57:46.082Z,91.10
2018-11-02T13:00:16.334Z,91.70
2018-11-02T13:02:45.836Z,91.10
2018-11-02T13:05:14.332Z,91.30
2018-11-02T13:07:49.738Z,92.00
2018-11-02T13:10:22.528Z,92.20
2018-11-02T13:12:51.009Z,92.30
2018-11-02T13:15:22.542Z,92.10
2018-11-02T13:17:51.318Z,92.20
2018-11-02T13:20:20.162Z,92.60
2018-11-02T13:22:50.170Z,92.60
2018-11-02T13:25:20.246Z,92.30
2018-11-02T13:27:49.664Z,92.60
2018-11-02T13:30:18.393Z,92.80
2018-11-02T13:32:46.690Z,93.00
2018-11-02T13:35:17.442Z,93.00
2018-11-02T13:37:46.556Z,93.00
2018-11-02T13:40:16.274Z,93.10
2018-11-02T13:42:45.146Z,93.30
2018-11-02T13:45:14.940Z,93.50
2018-11-02T13:47:44.045Z,93.30
2018-11-02T13:50:12.951Z,93.40
2018-11-02T13:52:41.841Z,93.40
2018-11-02T13:55:11.574Z,93.70
2018-11-02T13:57:40.330Z,93.70
2018-11-02T14:00:11.139Z,94.00
2018-11-02T14:02:39.626Z,94.20
2018-11-02T14:05:09.652Z,94.40
2018-11-02T14:07:38.196Z,94.30
2018-11-02T14:10:07.596Z,94.40
2018-11-02T14:12:36.101Z,94.40
2018-11-02T14:15:05.522Z,94.50
2018-11-02T14:17:34.042Z,94.40
2018-11-02T14:20:02.508Z,94.70
2018-11-02T14:22:30.969Z,95.00
2018-11-02T14:24:59.471Z,95.00
2018-11-02T14:27:27.980Z,94.60
2018-11-02T14:29:56.457Z,94.90
2018-11-02T14:32:24.960Z,95.20
2018-11-02T14:34:53.425Z,95.30
2018-11-02T14:37:21.963Z,95.50
2018-11-02T14:39:51.067Z,95.90
2018-11-02T14:42:19.546Z,96.00
2018-11-02T14:44:48.021Z,95.80
2018-11-02T14:47:16.492Z,99.90
2018-11-02T14:49:44.945Z,95.90
2018-11-02T14:52:13.425Z,95.70
2018-11-02T14:54:41.937Z,96.30
2018-11-02T14:57:10.412Z,96.00
2018-11-02T14:59:38.952Z,96.20
2018-11-02T15:02:07.443Z,96.30
2018-11-02T15:04:52.307Z,96.60
2018-11-02T15:07:20.869Z,96.80
2018-11-02T15:09:49.465Z,97.00
2018-11-02T15:12:18.104Z,96.90
2018-11-02T15:14:46.773Z,97.20
2018-11-02T15:17:16.871Z,97.20
2018-11-02T15:19:45.557Z,97.30
2018-11-02T15:22:14.053Z,97.40
2018-11-02T15:24:42.608Z,97.50
2018-11-02T15:27:11.117Z,97.30
2018-11-02T15:29:39.595Z,97.40
2018-11-02T15:32:08.247Z,97.50
2018-11-02T15:34:36.842Z,97.80
2018-11-02T15:37:05.392Z,97.90
2018-11-02T15:39:33.848Z,99.90
2018-11-02T15:42:02.427Z,99.30
2018-11-02T15:44:31.001Z,99.90
2018-11-02T15:47:00.042Z,99.60
2018-11-02T15:49:28.571Z,97.80
2018-11-02T15:51:57.062Z,98.60
2018-11-02T15:54:25.552Z,98.50
2018-11-02T15:56:54.069Z,97.80
2018-11-02T15:59:22.551Z,97.90
2018-11-02T16:01:51.105Z,98.00
2018-11-02T16:04:20.631Z,98.10
2018-11-02T16:06:49.311Z,98.20
2018-11-02T16:09:17.797Z,98.20
2018-11-02T16:11:46.904Z,98.50
2018-11-02T16:14:15.622Z,98.40
2018-11-02T16:16:46.723Z,98.10
2018-11-02T16:19:15.166Z,98.00
2018-11-02T16:21:43.700Z,98.00
2018-11-02T16:24:12.174Z,98.00
2018-11-02T16:26:40.991Z,98.00
2018-11-02T16:29:09.494Z,98.20
2018-11-02T16:31:37.993Z,98.20
2018-11-02T16:34:06.637Z,98.50
2018-11-02T16:36:35.139Z,98.40
2018-11-02T16:39:04.586Z,98.50
2018-11-02T16:41:33.407Z,98.80
2018-11-02T16:44:01.975Z,98.90
2018-11-02T16:46:30.420Z,98.80
2018-11-02T16:48:58.885Z,98.80
2018-11-02T16:51:27.399Z,98.80
2018-11-02T16:53:55.858Z,99.30
2018-11-02T16:56:24.389Z,99.40
2018-11-02T16:58:53.187Z,99.20
2018-11-02T17:01:21.863Z,99.50
2018-11-02T17:03:50.410Z,99.60
2018-11-02T17:06:18.915Z,99.60
2018-11-02T17:08:47.442Z,99.70
2018-11-02T17:11:16.050Z,99.90
2018-11-02T17:13:44.521Z,99.90
2018-11-02T17:16:13.063Z,99.90
2018-11-02T17:18:41.620Z,99.90
2018-11-02T17:21:10.085Z,99.90
2018-11-02T17:23:38.613Z,99.90
2018-11-02T17:26:07.323Z,99.90
2018-11-02T17:28:35.841Z,99.90
2018-11-02T17:31:04.394Z,99.90
2018-11-02T17:33:32.885Z,99.90
2018-11-02T17:36:01.356Z,99.90
2018-11-02T17:38:29.851Z,99.90
2018-11-02T17:40:58.389Z,99.90
2018-11-02T17:43:26.911Z,99.90
2018-11-02T17:45:55.392Z,99.90
2018-11-02T17:48:24.001Z,99.90
2018-11-02T17:50:52.547Z,99.90
2018-11-02T17:53:21.043Z,99.90
2018-11-02T17:55:49.615Z,99.90
2018-11-02T17:58:18.205Z,99.90
2018-11-02T18:00:46.765Z,99.90
2018-11-02T18:03:15.356Z,99.90
2018-11-02T18:05:44.263Z,99.90
2018-11-02T18:08:12.801Z,99.90
2018-11-02T18:10:41.301Z,99.90
2018-11-02T18:13:09.847Z,99.90
2018-11-02T18:15:38.401Z,99.90
2018-11-02T18:18:07.687Z,99.90
2018-11-02T18:20:36.421Z,99.90
2018-11-02T18:23:05.204Z,99.90
2018-11-02T18:25:33.892Z,99.90
2018-11-02T18:28:03.266Z,99.90
2018-11-02T18:30:32.169Z,99.90
2018-11-02T18:33:00.918Z,99.90
2018-11-02T18:35:29.966Z,99.90
2018-11-02T18:37:59.195Z,99.90
2018-11-02T18:40:28.471Z,99.90
2018-11-02T18:42:58.620Z,99.90
2018-11-02T18:45:28.582Z,99.90
2018-11-02T18:47:57.501Z,99.90
2018-11-02T18:50:27.241Z,99.90
2018-11-02T18:52:56.034Z,99.90
2018-11-02T18:55:24.882Z,99.90
2018-11-02T18:57:53.935Z,99.90
2018-11-02T19:00:23.123Z,99.90
2018-11-02T19:02:52.317Z,99.90
2018-11-02T19:05:21.673Z,99.90
2018-11-02T19:07:51.154Z,99.90
2018-11-02T19:10:20.524Z,99.90
2018-11-02T19:12:49.745Z,99.90
2018-11-02T19:15:20.427Z,99.90
2018-11-02T19:17:50.730Z,99.90
2018-11-02T19:20:20.347Z,99.90
2018-11-02T19:22:49.747Z,99.90
2018-11-02T19:25:23.304Z,99.90
2018-11-02T19:27:52.734Z,99.90
2018-11-02T19:30:22.913Z,99.90
2018-11-02T19:32:52.435Z,99.90
2018-11-02T19:35:23.212Z,99.90
2018-11-02T19:37:52.887Z,99.90
2018-11-02T19:40:22.338Z,99.90
2018-11-02T19:42:52.226Z,99.90
2018-11-02T19:45:23.273Z,99.90
2018-11-02T19:47:59.556Z,99.90
2018-11-02T19:50:29.295Z,99.90
2018-11-02T19:53:00.271Z,99.90
2018-11-02T19:55:29.755Z,99.90
2018-11-02T19:57:59.670Z,99.90
2018-11-02T20:00:29.031Z,99.90
2018-11-02T20:02:58.436Z,99.90
2018-11-02T20:05:28.026Z,99.90
2018-11-02T20:07:57.918Z,99.90
2018-11-02T20:10:30.362Z,99.90
2018-11-02T20:12:59.749Z,99.90
2018-11-02T20:17:59.390Z,99.90
2018-11-02T20:20:28.920Z,99.90
2018-11-02T20:22:59.804Z,99.90
2018-11-02T20:25:29.192Z,99.90
2018-11-02T20:27:59.110Z,99.90
2018-11-02T20:30:28.643Z,99.90
2018-11-02T20:35:26.014Z,99.90
2018-11-02T20:37:56.439Z,99.90
2018-11-02T20:40:27.901Z,99.90
2018-11-02T20:42:57.396Z,99.90
2018-11-02T20:45:26.920Z,99.90
2018-11-02T20:47:57.431Z,99.90
2018-11-02T20:50:26.783Z,99.90
2018-11-02T20:52:56.185Z,99.90
2018-11-02T20:55:26.695Z,99.90
2018-11-02T20:57:57.075Z,99.90
2018-11-02T21:00:26.797Z,99.90
2018-11-02T21:02:56.375Z,99.90
2018-11-02T21:05:25.724Z,99.90
2018-11-02T21:07:55.862Z,99.90
2018-11-02T21:10:26.663Z,99.90
2018-11-02T21:12:56.100Z,99.90
2018-11-02T21:15:25.963Z,99.90
2018-11-02T21:17:58.513Z,99.90
2018-11-02T21:20:29.709Z,99.90
2018-11-02T21:22:58.830Z,99.90
2018-11-02T21:25:27.816Z,99.90
2018-11-02T21:27:58.604Z,99.90
2018-11-02T21:30:27.614Z,99.90
2018-11-02T21:32:56.875Z,99.90
2018-11-02T21:35:25.892Z,99.90
2018-11-02T21:37:55.703Z,99.90
2018-11-02T21:40:25.659Z,99.90
2018-11-02T21:42:54.664Z,99.90
2018-11-02T21:45:24.500Z,99.90
2018-11-02T21:47:53.657Z,99.90
2018-11-02T21:50:22.786Z,99.90
2018-11-02T21:52:51.608Z,99.90
2018-11-02T21:55:20.521Z,99.90
2018-11-02T21:57:49.526Z,99.90
2018-11-02T22:00:20.130Z,99.90
2018-11-02T22:02:49.413Z,99.90
2018-11-02T22:05:18.658Z,99.90
2018-11-02T22:07:49.272Z,99.90
2018-11-02T22:10:18.701Z,99.90
2018-11-02T22:12:47.976Z,99.90
2018-11-02T22:15:17.221Z,99.90
2018-11-02T22:17:46.956Z,99.90
2018-11-02T22:20:16.532Z,99.90
2018-11-02T22:22:45.514Z,99.90
2018-11-02T22:25:15.468Z,99.90
2018-11-02T22:27:48.405Z,99.90
2018-11-02T22:30:18.131Z,99.90
2018-11-02T22:32:47.709Z,99.90
2018-11-02T22:35:16.829Z,99.90
2018-11-02T22:37:46.264Z,99.90
2018-11-02T22:40:19.440Z,99.90
2018-11-02T22:42:48.079Z,99.90
2018-11-02T22:45:22.371Z,99.90
2018-11-02T22:47:56.492Z,99.90
2018-11-02T22:50:26.079Z,99.90
2018-11-02T22:53:01.363Z,99.90
2018-11-02T22:55:30.952Z,99.90
2018-11-02T22:58:00.856Z,99.90
2018-11-02T23:00:29.465Z,99.90
2018-11-02T23:02:58.120Z,99.90
2018-11-02T23:05:26.728Z,99.90
2018-11-02T23:07:55.242Z,99.90
2018-11-02T23:10:23.837Z,99.90
2018-11-02T23:12:52.288Z,99.90
2018-11-02T23:15:20.913Z,99.90
2018-11-02T23:17:49.377Z,99.90
2018-11-02T23:20:17.928Z,99.90
2018-11-02T23:22:46.520Z,99.90
2018-11-02T23:25:15.088Z,99.90
2018-11-02T23:27:44.777Z,99.90
2018-11-02T23:30:13.347Z,99.90
2018-11-02T23:32:41.830Z,99.90
2018-11-02T23:35:10.414Z,99.90
2018-11-02T23:37:38.897Z,99.90
2018-11-02T23:40:10.137Z,99.90
2018-11-02T23:42:38.606Z,99.90
2018-11-02T23:45:07.824Z,99.90
2018-11-02T23:47:36.301Z,99.90
2018-11-02T23:50:06.093Z,99.90
2018-11-02T23:52:34.557Z,99.90
2018-11-02T23:55:03.318Z,99.90
2018-11-02T23:57:31.750Z,99.90
